Aviation Digital Data Service (ADDS)

Output produced by METARs form (1230 UTC 16 July 2019)
found at http://www.aviationweather.gov/metar/data/
 
TAF DNAA 160940Z 1612/1718 21010KT 9999 SCT010 
     PROB30 
     TEMPO 1616/1622 07018G35KT 5000 -TSRA BKN008 
     BECMG 1622/1624 14005KT